createdAt,value
2023-04-20T00:01:54.040Z,6.63
2023-04-20T00:04:22.360Z,5.85
2023-04-20T00:06:51.806Z,5.75
2023-04-20T00:09:19.464Z,6.07
2023-04-20T00:11:46.710Z,6.68
2023-04-20T00:14:14.586Z,6.30
2023-04-20T00:16:42.454Z,6.13
2023-04-20T00:19:10.065Z,7.40
2023-04-20T00:21:37.342Z,6.50
2023-04-20T00:24:04.857Z,7.55
2023-04-20T00:26:32.003Z,6.88
2023-04-20T00:28:59.511Z,7.18
2023-04-20T00:31:27.709Z,5.90
2023-04-20T00:33:55.525Z,7.07
2023-04-20T00:36:22.584Z,6.57
2023-04-20T00:38:50.073Z,7.00
2023-04-20T00:41:17.153Z,8.57
2023-04-20T00:43:52.726Z,8.65
2023-04-20T00:46:21.902Z,7.80
2023-04-20T00:48:53.552Z,9.80
2023-04-20T00:51:23.567Z,7.18
2023-04-20T00:53:51.266Z,8.55
2023-04-20T00:56:19.450Z,8.88
2023-04-20T00:58:47.066Z,8.07
2023-04-20T01:01:17.778Z,9.73
2023-04-20T01:03:46.320Z,10.25
2023-04-20T01:06:15.026Z,16.50
2023-04-20T01:08:51.256Z,11.45
2023-04-20T01:11:18.884Z,13.30
2023-04-20T01:13:46.477Z,10.25
2023-04-20T01:16:13.816Z,8.98
2023-04-20T01:18:49.841Z,9.38
2023-04-20T01:21:19.780Z,8.13
2023-04-20T01:23:47.547Z,8.65
2023-04-20T01:26:18.483Z,9.68
2023-04-20T01:28:46.721Z,9.75
2023-04-20T01:31:14.310Z,7.80
2023-04-20T01:33:42.008Z,7.25
2023-04-20T01:36:10.235Z,6.95
2023-04-20T01:38:38.077Z,7.35
2023-04-20T01:41:08.973Z,10.48
2023-04-20T01:43:38.372Z,8.40
2023-04-20T01:46:06.363Z,8.25
2023-04-20T01:48:34.445Z,8.77
2023-04-20T01:51:01.464Z,9.48
2023-04-20T01:53:28.907Z,8.50
2023-04-20T01:55:55.904Z,9.55
2023-04-20T01:58:23.418Z,11.52
2023-04-20T02:00:50.531Z,7.85
2023-04-20T02:03:18.167Z,8.02
2023-04-20T02:05:45.304Z,8.18
2023-04-20T02:08:12.708Z,7.72
2023-04-20T02:10:39.957Z,9.73
2023-04-20T02:13:07.489Z,10.00
2023-04-20T02:15:34.680Z,8.13
2023-04-20T02:18:02.101Z,9.52
2023-04-20T02:20:29.372Z,11.25
2023-04-20T02:22:56.651Z,9.65
2023-04-20T02:25:25.055Z,14.13
2023-04-20T02:27:52.380Z,11.25
2023-04-20T02:30:19.635Z,12.35
2023-04-20T02:32:47.099Z,12.38
2023-04-20T02:35:14.124Z,10.57
2023-04-20T02:37:41.350Z,8.73
2023-04-20T02:40:09.093Z,10.85
2023-04-20T02:42:36.485Z,11.20
2023-04-20T02:45:04.459Z,11.38
2023-04-20T02:47:32.170Z,9.30
2023-04-20T02:49:59.312Z,10.80
2023-04-20T02:52:26.638Z,11.23
2023-04-20T02:54:53.987Z,9.20
2023-04-20T02:57:21.280Z,12.48
2023-04-20T02:59:48.309Z,13.50
2023-04-20T03:02:16.072Z,11.10
2023-04-20T03:04:44.153Z,13.73
2023-04-20T03:07:11.623Z,11.77
2023-04-20T03:09:38.878Z,10.00
2023-04-20T03:12:06.723Z,9.85
2023-04-20T03:14:33.850Z,10.75
2023-04-20T03:17:01.730Z,12.18
2023-04-20T03:19:29.157Z,11.57
2023-04-20T03:21:56.512Z,11.57
2023-04-20T03:24:24.152Z,16.65
2023-04-20T03:26:51.449Z,11.43
2023-04-20T03:29:18.764Z,10.23
2023-04-20T03:31:46.695Z,13.88
2023-04-20T03:34:13.718Z,11.10
2023-04-20T03:36:41.075Z,12.45
2023-04-20T03:39:08.665Z,12.85
2023-04-20T03:41:36.074Z,10.85
2023-04-20T03:44:03.068Z,12.07
2023-04-20T03:46:30.373Z,13.88
2023-04-20T03:48:57.637Z,11.82
2023-04-20T03:51:25.037Z,12.50
2023-04-20T03:53:52.169Z,11.45
2023-04-20T03:56:19.852Z,11.27
2023-04-20T03:58:46.842Z,15.05
2023-04-20T04:01:15.832Z,15.18
2023-04-20T04:03:43.141Z,12.65
2023-04-20T04:06:11.648Z,13.73
2023-04-20T04:08:38.858Z,11.30
2023-04-20T04:11:06.620Z,14.35
2023-04-20T04:13:34.788Z,12.77
2023-04-20T04:16:02.780Z,12.30
2023-04-20T04:18:32.900Z,11.63
2023-04-20T04:21:00.872Z,12.20
2023-04-20T04:23:27.921Z,12.90
2023-04-20T04:25:57.185Z,14.05
2023-04-20T04:28:25.336Z,12.23
2023-04-20T04:30:54.312Z,13.60
2023-04-20T04:33:21.963Z,10.82
2023-04-20T04:35:49.699Z,13.90
2023-04-20T04:38:16.840Z,15.20
2023-04-20T04:40:46.010Z,15.73
2023-04-20T04:43:13.113Z,13.57
2023-04-20T04:45:41.229Z,14.23
2023-04-20T04:48:12.158Z,11.35
2023-04-20T04:50:40.100Z,10.77
2023-04-20T04:53:07.918Z,11.93
2023-04-20T04:55:35.370Z,14.80
2023-04-20T04:58:02.738Z,14.07
2023-04-20T05:00:34.054Z,13.75
2023-04-20T05:03:01.119Z,11.55
2023-04-20T05:05:30.031Z,11.95
2023-04-20T05:07:57.097Z,13.88
2023-04-20T05:10:24.409Z,14.38
2023-04-20T05:12:52.446Z,13.65
2023-04-20T05:15:19.784Z,14.40
2023-04-20T05:17:46.859Z,12.35
2023-04-20T05:20:14.190Z,12.85
2023-04-20T05:22:41.346Z,12.73
2023-04-20T05:25:10.298Z,17.30
2023-04-20T05:27:39.712Z,12.48
2023-04-20T05:30:19.606Z,13.20
2023-04-20T05:32:51.152Z,13.65
2023-04-20T05:35:20.476Z,13.00
2023-04-20T05:37:48.047Z,15.38
2023-04-20T05:40:16.010Z,12.95
2023-04-20T05:42:43.298Z,16.17
2023-04-20T05:45:11.681Z,20.42
2023-04-20T05:47:40.104Z,10.85
2023-04-20T05:50:08.835Z,12.25
2023-04-20T05:52:36.164Z,13.90
2023-04-20T05:55:03.855Z,21.65
2023-04-20T05:57:30.952Z,17.73
2023-04-20T05:59:58.858Z,10.75
2023-04-20T06:02:26.062Z,10.85
2023-04-20T06:04:53.780Z,13.43
2023-04-20T06:07:21.022Z,12.20
2023-04-20T06:09:48.372Z,13.32
2023-04-20T06:12:15.815Z,14.30
2023-04-20T06:14:43.085Z,13.23
2023-04-20T06:17:10.603Z,11.75
2023-04-20T06:19:38.198Z,12.02
2023-04-20T06:22:09.714Z,11.95
2023-04-20T06:24:38.945Z,17.02
2023-04-20T06:27:06.513Z,16.35
2023-04-20T06:29:34.082Z,13.15
2023-04-20T06:32:01.379Z,13.02
2023-04-20T06:34:28.992Z,12.38
2023-04-20T06:36:58.916Z,10.70
2023-04-20T06:39:26.194Z,14.32
2023-04-20T06:41:53.265Z,16.77
2023-04-20T06:44:20.562Z,17.40
2023-04-20T06:46:47.713Z,15.27
2023-04-20T06:49:15.310Z,14.65
2023-04-20T06:51:43.149Z,13.48
2023-04-20T06:54:10.680Z,13.88
2023-04-20T06:56:37.779Z,17.15
2023-04-20T06:59:05.111Z,14.13
2023-04-20T07:01:32.330Z,22.15
2023-04-20T07:03:59.785Z,12.80
2023-04-20T07:06:28.969Z,16.92
2023-04-20T07:08:57.374Z,11.95
2023-04-20T07:11:25.615Z,15.88
2023-04-20T07:13:53.124Z,12.60
2023-04-20T07:16:20.395Z,13.05
2023-04-20T07:18:47.748Z,9.65
2023-04-20T07:21:15.631Z,11.45
2023-04-20T07:23:44.768Z,12.90
2023-04-20T07:26:12.588Z,14.35
2023-04-20T07:28:40.530Z,14.23
2023-04-20T07:31:07.619Z,13.32
2023-04-20T07:33:35.948Z,14.63
2023-04-20T07:36:03.112Z,14.40
2023-04-20T07:38:30.587Z,11.23
2023-04-20T07:40:57.857Z,11.55
2023-04-20T07:43:25.402Z,16.73
2023-04-20T07:45:52.644Z,16.95
2023-04-20T07:48:20.104Z,12.43
2023-04-20T07:50:47.102Z,13.40
2023-04-20T07:53:14.478Z,19.92
2023-04-20T07:55:41.664Z,16.13
2023-04-20T07:58:09.176Z,23.38
2023-04-20T08:00:36.536Z,16.48
2023-04-20T08:03:05.216Z,17.48
2023-04-20T08:05:33.027Z,14.50
2023-04-20T08:08:00.797Z,16.00
2023-04-20T08:10:27.873Z,13.93
2023-04-20T08:12:55.331Z,15.73
2023-04-20T08:15:22.348Z,15.98
2023-04-20T08:17:49.640Z,14.13
2023-04-20T08:20:16.786Z,16.95
2023-04-20T08:22:44.305Z,19.75
2023-04-20T08:25:11.763Z,16.88
2023-04-20T08:27:39.388Z,17.45
2023-04-20T08:30:07.921Z,13.73
2023-04-20T08:32:35.844Z,13.25
2023-04-20T08:35:04.665Z,17.20
2023-04-20T08:37:33.171Z,15.15
2023-04-20T08:40:00.351Z,14.02
2023-04-20T08:42:27.842Z,14.75
2023-04-20T08:44:54.976Z,16.63
2023-04-20T08:47:22.793Z,18.35
2023-04-20T08:49:57.794Z,14.63
2023-04-20T08:52:25.178Z,15.57
2023-04-20T08:54:56.476Z,17.05
2023-04-20T08:57:26.434Z,16.00
2023-04-20T08:59:54.068Z,16.08
2023-04-20T09:02:22.899Z,22.52
2023-04-20T09:05:01.509Z,17.73
2023-04-20T09:07:29.112Z,15.63
2023-04-20T09:10:01.145Z,17.58
2023-04-20T09:12:29.226Z,18.77
2023-04-20T09:14:56.928Z,21.50
2023-04-20T09:17:33.765Z,17.98
2023-04-20T09:20:01.197Z,26.85
2023-04-20T09:22:35.059Z,19.08
2023-04-20T09:25:17.074Z,18.65
2023-04-20T09:27:54.820Z,19.13
2023-04-20T09:30:22.057Z,18.20
2023-04-20T09:32:49.684Z,20.63
2023-04-20T09:35:24.298Z,20.30
2023-04-20T09:37:51.816Z,25.63
2023-04-20T09:40:20.034Z,21.25
2023-04-20T09:42:49.975Z,25.08
2023-04-20T09:45:18.546Z,18.23
2023-04-20T09:47:48.117Z,19.25
2023-04-20T09:50:26.731Z,20.10
2023-04-20T09:52:57.980Z,30.35
2023-04-20T09:55:26.796Z,21.70
2023-04-20T09:57:54.591Z,24.35
2023-04-20T10:00:22.644Z,20.95
2023-04-20T10:02:50.522Z,20.65
2023-04-20T10:05:17.802Z,18.52
2023-04-20T10:07:45.675Z,18.83
2023-04-20T10:10:17.042Z,28.40
2023-04-20T10:12:54.754Z,22.42
2023-04-20T10:15:24.057Z,27.20
2023-04-20T10:17:51.887Z,20.33
2023-04-20T10:20:28.465Z,18.80
2023-04-20T10:23:10.100Z,17.63
2023-04-20T10:25:37.744Z,15.85
2023-04-20T10:28:09.762Z,17.58
2023-04-20T10:30:38.250Z,21.23
2023-04-20T10:33:12.168Z,18.55
2023-04-20T10:35:49.553Z,19.02
2023-04-20T10:38:29.422Z,21.20
2023-04-20T10:40:56.780Z,21.63
2023-04-20T10:43:24.162Z,24.50
2023-04-20T10:45:51.608Z,21.02
2023-04-20T10:48:19.181Z,23.38
2023-04-20T10:50:46.427Z,23.55
2023-04-20T10:53:22.771Z,22.17
2023-04-20T10:56:01.135Z,23.50
2023-04-20T10:58:28.735Z,24.42
2023-04-20T11:01:05.910Z,23.27
2023-04-20T11:03:34.826Z,22.95
2023-04-20T11:06:04.012Z,21.35
2023-04-20T11:08:39.605Z,26.83
2023-04-20T11:13:45.386Z,21.58
2023-04-20T11:16:17.490Z,23.25
2023-04-20T11:18:54.129Z,21.40
2023-04-20T11:21:23.004Z,21.45
2023-04-20T11:23:53.440Z,24.42
2023-04-20T11:26:20.931Z,23.05
2023-04-20T11:28:55.922Z,19.98
2023-04-20T11:31:24.005Z,22.48
2023-04-20T11:33:51.520Z,21.02
2023-04-20T11:36:29.895Z,27.38
2023-04-20T11:39:13.470Z,24.25
2023-04-20T11:41:42.517Z,23.90
2023-04-20T11:44:11.200Z,21.20
2023-04-20T11:46:38.797Z,25.70
2023-04-20T11:49:07.070Z,23.20
2023-04-20T11:51:33.986Z,26.45
2023-04-20T11:54:01.652Z,34.35
2023-04-20T11:56:28.821Z,31.45
2023-04-20T11:58:56.559Z,21.77
2023-04-20T12:01:23.597Z,27.05
2023-04-20T12:03:51.344Z,32.30
2023-04-20T12:06:18.944Z,32.35
2023-04-20T12:08:48.083Z,23.35
2023-04-20T12:11:16.929Z,20.67
2023-04-20T12:13:44.204Z,20.40
2023-04-20T12:16:11.317Z,19.67
2023-04-20T12:18:39.187Z,19.85
2023-04-20T12:21:06.392Z,24.52
2023-04-20T12:23:36.875Z,41.17
2023-04-20T12:26:05.944Z,22.48
2023-04-20T12:28:33.698Z,23.98
2023-04-20T12:31:01.066Z,23.20
2023-04-20T12:33:28.556Z,24.25
2023-04-20T12:35:55.615Z,24.42
2023-04-20T12:38:23.013Z,20.20
2023-04-20T12:40:50.118Z,20.30
2023-04-20T12:43:17.502Z,24.95
2023-04-20T12:45:44.625Z,21.50
2023-04-20T12:48:11.988Z,18.77
2023-04-20T12:50:39.272Z,23.73
2023-04-20T12:53:06.786Z,20.33
2023-04-20T12:55:33.841Z,19.98
2023-04-20T12:58:01.161Z,22.38
2023-04-20T13:00:28.277Z,22.48
2023-04-20T13:02:55.798Z,21.60
2023-04-20T13:05:22.898Z,21.42
2023-04-20T13:07:50.760Z,22.77
2023-04-20T13:10:17.939Z,20.48
2023-04-20T13:12:45.298Z,17.98
2023-04-20T13:15:13.260Z,21.58
2023-04-20T13:17:41.453Z,21.73
2023-04-20T13:20:09.166Z,24.35
2023-04-20T13:22:41.130Z,20.92
2023-04-20T13:25:18.101Z,22.30
2023-04-20T13:27:45.385Z,17.95
2023-04-20T13:30:13.584Z,21.20
2023-04-20T13:32:41.066Z,19.98
2023-04-20T13:35:08.548Z,21.77
2023-04-20T13:37:36.690Z,24.55
2023-04-20T13:40:07.163Z,18.73
2023-04-20T13:42:34.871Z,16.98
2023-04-20T13:45:02.612Z,16.15
2023-04-20T13:47:30.153Z,19.77
2023-04-20T13:49:57.252Z,17.58
2023-04-20T13:52:24.829Z,14.25
2023-04-20T13:54:51.794Z,13.93
2023-04-20T13:57:19.028Z,14.52
2023-04-20T13:59:46.160Z,19.23
2023-04-20T14:02:13.503Z,23.08
2023-04-20T14:04:41.161Z,17.00
2023-04-20T14:07:08.685Z,17.05
2023-04-20T14:09:36.086Z,16.88
2023-04-20T14:12:03.906Z,14.77
2023-04-20T14:14:30.911Z,14.70
2023-04-20T14:16:58.305Z,15.43
2023-04-20T14:19:25.361Z,17.98
2023-04-20T14:21:52.790Z,22.40
2023-04-20T14:24:20.042Z,15.38
2023-04-20T14:26:47.485Z,12.48
2023-04-20T14:29:15.024Z,16.10
2023-04-20T14:31:42.427Z,13.68
2023-04-20T14:34:09.925Z,15.90
2023-04-20T14:36:37.307Z,12.32
2023-04-20T14:39:04.806Z,14.13
2023-04-20T14:41:34.630Z,13.20
2023-04-20T14:44:01.985Z,14.35
2023-04-20T14:46:29.576Z,14.32
2023-04-20T14:48:57.155Z,12.82
2023-04-20T14:51:24.562Z,12.15
2023-04-20T14:53:51.712Z,11.52
2023-04-20T14:56:19.015Z,11.88
2023-04-20T14:58:47.996Z,13.77
2023-04-20T15:01:15.773Z,16.63
2023-04-20T15:03:43.735Z,11.07
2023-04-20T15:06:11.752Z,12.77
2023-04-20T15:08:39.058Z,14.10
2023-04-20T15:11:06.396Z,11.07
2023-04-20T15:13:33.556Z,14.20
2023-04-20T15:16:00.932Z,11.93
2023-04-20T15:18:28.027Z,12.20
2023-04-20T15:20:55.217Z,13.65
2023-04-20T15:23:22.516Z,10.15
2023-04-20T15:25:50.848Z,12.80
2023-04-20T15:28:18.007Z,10.02
2023-04-20T15:30:45.276Z,8.25
2023-04-20T15:33:12.734Z,9.73
2023-04-20T15:35:42.966Z,9.65
2023-04-20T15:38:10.337Z,14.18
2023-04-20T15:40:38.890Z,10.82
2023-04-20T15:43:06.680Z,11.10
2023-04-20T15:45:33.900Z,8.40
2023-04-20T15:48:01.136Z,12.52
2023-04-20T15:50:28.542Z,8.05
2023-04-20T15:52:55.754Z,7.57
2023-04-20T15:55:23.129Z,10.07
2023-04-20T15:57:50.148Z,9.73
2023-04-20T16:00:17.873Z,7.53
2023-04-20T16:02:45.192Z,10.02
2023-04-20T16:05:12.756Z,9.75
2023-04-20T16:07:39.724Z,9.13
2023-04-20T16:10:08.195Z,7.55
2023-04-20T16:12:35.306Z,26.20
2023-04-20T16:15:04.092Z,8.93
2023-04-20T16:17:31.296Z,7.07
2023-04-20T16:19:58.872Z,8.48
2023-04-20T16:22:26.030Z,6.65
2023-04-20T16:24:53.620Z,7.20
2023-04-20T16:27:20.551Z,6.75
2023-04-20T16:29:51.539Z,6.72
2023-04-20T16:32:18.539Z,8.07
2023-04-20T16:34:48.192Z,7.88
2023-04-20T16:37:15.170Z,8.70
2023-04-20T16:39:44.061Z,11.10
2023-04-20T16:42:12.010Z,6.28
2023-04-20T16:44:41.675Z,8.77
2023-04-20T16:47:09.118Z,6.00
2023-04-20T16:49:39.905Z,5.55
2023-04-20T16:52:07.020Z,5.55
2023-04-20T16:54:35.501Z,5.25
2023-04-20T16:57:03.423Z,5.93
2023-04-20T16:59:31.084Z,5.00
2023-04-20T17:01:58.033Z,9.90
2023-04-20T17:04:25.946Z,6.85
2023-04-20T17:06:53.127Z,13.23
2023-04-20T17:09:20.456Z,4.95
2023-04-20T17:11:47.474Z,7.50
2023-04-20T17:14:15.118Z,5.63
2023-04-20T17:16:42.222Z,8.15
2023-04-20T17:19:09.449Z,6.80
2023-04-20T17:21:36.509Z,9.80
2023-04-20T17:24:04.093Z,7.70
2023-04-20T17:26:31.106Z,9.18
2023-04-20T17:28:58.596Z,6.68
2023-04-20T17:31:25.802Z,11.98
2023-04-20T17:33:53.313Z,6.57
2023-04-20T17:36:20.652Z,7.65
2023-04-20T17:38:47.972Z,12.00
2023-04-20T17:41:15.191Z,7.88
2023-04-20T17:43:43.140Z,10.38
2023-04-20T17:46:10.178Z,12.48
2023-04-20T17:48:37.554Z,9.82
2023-04-20T17:51:04.637Z,8.35
2023-04-20T17:53:31.915Z,10.38
2023-04-20T17:55:58.953Z,14.88
2023-04-20T17:58:26.245Z,10.18
2023-04-20T18:00:53.186Z,9.27
2023-04-20T18:03:21.291Z,9.40
2023-04-20T18:05:48.390Z,12.63
2023-04-20T18:08:17.657Z,29.98
2023-04-20T18:10:45.034Z,15.43
2023-04-20T18:13:12.294Z,12.85
2023-04-20T18:15:40.041Z,13.18
2023-04-20T18:18:08.507Z,12.52
2023-04-20T18:20:35.762Z,12.18
2023-04-20T18:23:03.260Z,13.60
2023-04-20T18:25:30.391Z,13.10
2023-04-20T18:27:57.682Z,12.65
2023-04-20T18:30:24.879Z,18.77
2023-04-20T18:32:52.177Z,12.63
2023-04-20T18:35:19.522Z,13.35
2023-04-20T18:37:46.868Z,16.35
2023-04-20T18:40:16.067Z,17.50
2023-04-20T18:42:47.422Z,16.50
2023-04-20T18:45:14.489Z,16.60
2023-04-20T18:47:41.706Z,16.65
2023-04-20T18:50:09.681Z,16.83
2023-04-20T18:52:37.068Z,15.13
2023-04-20T18:55:04.392Z,15.55
2023-04-20T18:57:31.723Z,16.80
2023-04-20T18:59:58.737Z,17.13
2023-04-20T19:02:26.612Z,17.45
2023-04-20T19:04:53.814Z,15.23
2023-04-20T19:07:21.104Z,17.05
2023-04-20T19:09:48.081Z,17.50
2023-04-20T19:12:15.600Z,19.02
2023-04-20T19:14:42.765Z,18.48
2023-04-20T19:17:10.509Z,15.68
2023-04-20T19:19:37.445Z,17.27
2023-04-20T19:22:04.736Z,19.23
2023-04-20T19:24:34.779Z,17.48
2023-04-20T19:27:02.308Z,17.85
2023-04-20T19:29:29.674Z,16.98
2023-04-20T19:31:56.953Z,17.20
2023-04-20T19:34:24.142Z,26.17
2023-04-20T19:36:52.526Z,17.20
2023-04-20T19:39:19.681Z,16.58
2023-04-20T19:41:47.473Z,18.77
2023-04-20T19:44:14.598Z,20.38
2023-04-20T19:46:43.629Z,19.90
2023-04-20T19:49:10.630Z,23.80
2023-04-20T19:51:37.909Z,22.60
2023-04-20T19:54:05.300Z,19.42
2023-04-20T19:56:33.733Z,17.85
2023-04-20T19:59:01.063Z,17.42
2023-04-20T20:01:28.456Z,21.63
2023-04-20T20:03:56.111Z,21.63
2023-04-20T20:06:23.872Z,20.00
2023-04-20T20:08:50.969Z,17.27
2023-04-20T20:11:18.687Z,21.25
2023-04-20T20:13:45.815Z,19.65
2023-04-20T20:16:13.178Z,19.17
2023-04-20T20:18:40.198Z,23.33
2023-04-20T20:21:07.528Z,19.42
2023-04-20T20:23:34.513Z,18.30
2023-04-20T20:26:02.853Z,20.00
2023-04-20T20:28:29.988Z,20.67
2023-04-20T20:30:57.385Z,20.25
2023-04-20T20:33:24.428Z,22.60
2023-04-20T20:35:52.709Z,17.17
2023-04-20T20:38:21.019Z,19.88
2023-04-20T20:40:53.579Z,21.35
2023-04-20T20:43:21.619Z,24.05
2023-04-20T20:45:48.937Z,21.88
2023-04-20T20:48:15.933Z,24.63
2023-04-20T20:50:43.471Z,24.33
2023-04-20T20:53:10.433Z,20.67
2023-04-20T20:55:40.524Z,21.00
2023-04-20T20:58:07.646Z,21.75
2023-04-20T21:00:35.624Z,24.33
2023-04-20T21:03:03.402Z,23.45
2023-04-20T21:05:30.830Z,19.17
2023-04-20T21:07:57.924Z,20.92
2023-04-20T21:10:25.417Z,23.35
2023-04-20T21:12:52.493Z,21.48
2023-04-20T21:15:19.748Z,23.63
2023-04-20T21:17:46.966Z,21.50
2023-04-20T21:20:16.429Z,20.83
2023-04-20T21:22:43.839Z,24.70
2023-04-20T21:25:11.643Z,24.00
2023-04-20T21:27:40.724Z,24.02
2023-04-20T21:30:10.226Z,21.58
2023-04-20T21:32:37.359Z,21.13
2023-04-20T21:35:04.927Z,25.17
2023-04-20T21:37:32.658Z,23.83
2023-04-20T21:40:00.973Z,21.83
2023-04-20T21:42:28.524Z,22.58
2023-04-20T21:44:56.171Z,25.67
2023-04-20T21:47:24.059Z,23.90
2023-04-20T21:49:51.688Z,22.20
2023-04-20T21:52:19.821Z,26.80
2023-04-20T21:54:48.764Z,24.98
2023-04-20T21:57:16.540Z,22.75
2023-04-20T21:59:44.694Z,22.85
2023-04-20T22:02:12.257Z,23.55
2023-04-20T22:04:41.323Z,27.95
2023-04-20T22:07:09.878Z,24.05
2023-04-20T22:09:37.203Z,23.90
2023-04-20T22:12:05.971Z,26.30
2023-04-20T22:14:33.285Z,28.48
2023-04-20T22:17:02.102Z,27.10
2023-04-20T22:19:29.524Z,30.70
2023-04-20T22:21:57.193Z,29.08
2023-04-20T22:24:25.466Z,25.50
2023-04-20T22:26:54.122Z,30.48
2023-04-20T22:29:22.494Z,25.95
2023-04-20T22:31:51.548Z,25.75
2023-04-20T22:34:18.987Z,25.30
2023-04-20T22:36:47.158Z,28.77
2023-04-20T22:39:15.430Z,26.38
2023-04-20T22:41:43.037Z,29.00
2023-04-20T22:44:10.231Z,27.20
2023-04-20T22:46:37.452Z,26.88
2023-04-20T22:49:07.737Z,35.17
2023-04-20T22:51:36.307Z,30.92
2023-04-20T22:54:05.123Z,28.70
2023-04-20T22:56:35.989Z,28.45
2023-04-20T22:59:04.675Z,32.58
2023-04-20T23:01:34.431Z,28.20
2023-04-20T23:04:02.487Z,27.65
2023-04-20T23:06:32.085Z,27.38
2023-04-20T23:09:01.339Z,26.27
2023-04-20T23:11:30.593Z,29.00
2023-04-20T23:13:58.488Z,31.50
2023-04-20T23:16:28.705Z,31.92
2023-04-20T23:18:57.340Z,26.70
2023-04-20T23:21:28.537Z,29.13
2023-04-20T23:23:57.888Z,28.27
2023-04-20T23:26:25.950Z,28.92
2023-04-20T23:28:54.937Z,31.98
2023-04-20T23:31:24.631Z,27.95
2023-04-20T23:33:53.008Z,34.42
2023-04-20T23:36:20.653Z,29.55
2023-04-20T23:38:47.570Z,30.95
2023-04-20T23:41:17.477Z,29.02
2023-04-20T23:43:45.534Z,40.75
2023-04-20T23:46:14.615Z,27.17
2023-04-20T23:48:43.006Z,27.17
2023-04-20T23:51:12.197Z,27.42
2023-04-20T23:53:39.753Z,25.88
2023-04-20T23:56:08.479Z,29.45
2023-04-20T23:58:37.453Z,29.23
